Finnhawk — OJNL — position and weather

sailwx.info

Track history (hours):
 
Tides and Currents Weather Stations Pressure Air Temp Water Temp Dewpoint Dewpoint Depression Visibility Wind Speed Wind Dir Waves Ship Positions

Finnhawk

Last reported at 2014-Sep-01 02:33 UTC. Time now 2014-Sep-01 07:57 UTC.
Position N 57°43' E 010°01'.

Length 163 m; draft 6.8 m.

Type: Ship. MMSI: 230007000.

Date/timePositionNaut miles runAvg speedWind from/ knotsBaromVisibWave heightAir tempDewpointWater temp
2014-Sep-01 02:33N 57°43' E 010°01'1717.1
2014-Sep-01 01:33N 57°47' E 010°32'1615.8
2014-Sep-01 00:33N 57°42' E 010°60'1717.5
2014-Aug-31 23:33N 57°30' E 011°23'1817.4
2014-Aug-31 22:33N 57°14' E 011°37'5117.0
2014-Aug-31 19:33N 56°25' E 012°07'1716.5
2014-Aug-31 18:33N 56°12' E 012°25'1717.2
2014-Aug-31 17:33N 55°58' E 012°42'1515.3
2014-Aug-31 16:33N 55°43' E 012°41'1312.5
2014-Aug-31 15:33N 55°30' E 012°42'1413.6
2014-Aug-31 14:33N 55°17' E 012°47'1818.0
2014-Aug-31 13:33N 55°15' E 013°19'1818.1
2014-Aug-31 12:34N 55°14' E 013°50'1717.0
2014-Aug-31 11:34N 55°16' E 014°20'1918.9
2014-Aug-31 10:34N 55°29' E 014°44'1919.2
2014-Aug-31 09:34N 55°39' E 015°13'2019.5
2014-Aug-31 08:33N 55°49' E 015°43'1919.1
2014-Aug-31 07:32N 55°59' E 016°14'4018.0
2014-Aug-31 05:20N 56°30' E 016°58'1518.9
2014-Aug-31 04:34N 56°43' E 017°08'1918.8
2014-Aug-31 03:33N 57°01' E 017°20'1918.8
2014-Aug-31 02:33N 57°18' E 017°33'22718.9
2014-Aug-30 14:33N 59°37' E 023°15'2619.0
2014-Aug-30 13:11N 59°46' E 024°04'1219.2
2014-Aug-30 12:33N 59°50' E 024°27'2218.3
2014-Aug-30 11:21N 60°00' E 025°05'1315.5
2014-Aug-30 10:31N 60°12' E 025°13'1 0.2
2014-Aug-30 06:08N 60°13' E 025°12'1 2.2
2014-Aug-30 05:33N 60°12' E 025°13'29 9.7
2014-Aug-30 02:33N 60°05' E 026°10'1413.6
2014-Aug-30 01:33N 60°16' E 026°28'1817.5
2014-Aug-30 00:33N 60°26' E 026°57'3 3.3
2014-Aug-29 23:32N 60°29' E 026°57'0 0.0
2014-Aug-29 22:32N 60°29' E 026°57'0 0.0
2014-Aug-29 21:32N 60°29' E 026°57'0 0.0
2014-Aug-29 20:32N 60°29' E 026°57'0 0.0
2014-Aug-29 19:32N 60°29' E 026°57'0 0.0
2014-Aug-29 18:32N 60°29' E 026°57'0 0.0
2014-Aug-29 17:32N 60°29' E 026°57'0 0.0
2014-Aug-29 16:32N 60°29' E 026°57'0 0.0
2014-Aug-29 15:32N 60°29' E 026°57'0 0.0
2014-Aug-29 14:32N 60°29' E 026°57'0 0.0
2014-Aug-29 13:32N 60°29' E 026°57'0 0.0
2014-Aug-29 12:32N 60°29' E 026°57'0 0.0
2014-Aug-29 11:32N 60°29' E 026°57'0 0.0
2014-Aug-29 10:32N 60°29' E 026°57'0 0.0
2014-Aug-29 09:32N 60°29' E 026°57'0 0.0
2014-Aug-29 08:33N 60°29' E 026°57'0 0.0
2014-Aug-29 07:33N 60°29' E 026°57'0 0.0
2014-Aug-29 06:33N 60°29' E 026°57'0 0.0
2014-Aug-29 05:33N 60°29' E 026°57'0 0.0
2014-Aug-29 04:33N 60°29' E 026°57'0 0.0
2014-Aug-29 03:33N 60°29' E 026°57'0 0.0
2014-Aug-29 02:34N 60°29' E 026°57'7 7.3
2014-Aug-29 01:34N 60°23' E 026°48'1717.0
2014-Aug-29 00:33N 60°12' E 026°23'1312.9
2014-Aug-28 23:33N 60°01' E 026°38'10514.1
2014-Aug-28 16:07N 59°54' E 030°07'3 0.2
2014-Aug-28 05:14N 59°53' E 030°13'9610.7
2014-Aug-27 20:18N 59°58' E 027°02'912.0
2014-Aug-27 19:34N 59°59' E 026°45'4514.8
2014-Aug-27 16:31N 60°01' E 025°15'12 4.0
2014-Aug-27 13:27N 60°13' E 025°12'0 0.0
2014-Aug-27 11:25N 60°13' E 025°12'6 7.4
2014-Aug-27 10:33N 60°07' E 025°12'2116.0
2014-Aug-27 09:13N 59°48' E 024°52'1115.7
2014-Aug-27 08:30N 59°44' E 024°31'1615.9
2014-Aug-27 07:30N 59°40' E 024°01'1616.1
2014-Aug-27 06:33N 59°35' E 023°32'21117.4
2014-Aug-26 18:24N 57°34' E 017°59'1517.8
2014-Aug-26 17:33N 57°22' E 017°44'1918.3
2014-Aug-26 16:32N 57°04' E 017°32'11217.8
2014-Aug-26 10:16N 55°37' E 015°25'1317.8
2014-Aug-26 09:33N 55°32' E 015°05'1817.8
2014-Aug-26 08:33N 55°23' E 014°38'1817.7
2014-Aug-26 07:33N 55°10' E 014°16'2318.0
2014-Aug-26 06:16N 55°12' E 013°36'1318.7
2014-Aug-26 05:33N 55°13' E 013°13'1818.4
2014-Aug-26 04:33N 55°17' E 012°41'1615.5
2014-Aug-26 03:33N 55°33' E 012°42'1313.2
2014-Aug-26 02:34N 55°46' E 012°41'1616.2
2014-Aug-26 01:33N 56°02' E 012°39'1716.8
2014-Aug-26 00:33N 56°13' E 012°17'1615.7
2014-Aug-25 23:33N 56°26' E 012°00'5117.0
2014-Aug-25 20:33N 57°14' E 011°32'1716.8
2014-Aug-25 19:33N 57°30' E 011°19'1717.3
2014-Aug-25 18:33N 57°41' E 010°55'1615.8
2014-Aug-25 17:33N 57°45' E 010°26'37218.6
2014-Aug-24 21:32N 54°03' E 001°32'1919.2
2014-Aug-24 20:32N 53°53' E 001°04'1919.2
2014-Aug-24 19:33N 53°44' E 000°37'1717.7
2014-Aug-24 18:33N 53°33' E 000°14'1515.1
2014-Aug-24 17:33N 53°38' W 000°10'7 7.3
2014-Aug-24 16:33N 53°44' W 000°16'0 0.3
2014-Aug-24 15:29N 53°44' W 000°16'0 0.0
2014-Aug-24 14:29N 53°44' W 000°16'0 0.0
2014-Aug-24 13:29N 53°44' W 000°16'0 0.0
2014-Aug-24 12:29N 53°44' W 000°16'0 0.0
2014-Aug-24 11:32N 53°44' W 000°16'0 0.0
2014-Aug-24 10:32N 53°44' W 000°16'0 0.0
2014-Aug-24 09:32N 53°44' W 000°16'0 0.0
2014-Aug-24 08:29N 53°44' W 000°16'0 0.0
2014-Aug-24 07:32N 53°44' W 000°16'0 0.3
2014-Aug-24 06:33N 53°44' W 000°16'1 0.6
2014-Aug-24 05:33N 53°44' W 000°16'1616.2
2014-Aug-24 04:33N 53°34' E 000°06'1515.2
2014-Aug-24 03:33N 53°42' E 000°28'42617.8
2014-Aug-23 03:33N 57°48' E 010°46'1818.3
2014-Aug-23 02:33N 57°36' E 011°11'1818.3
2014-Aug-23 01:33N 57°21' E 011°33'5618.8
2014-Aug-22 22:33N 56°28' E 012°05'1919.3
2014-Aug-22 21:33N 56°12' E 012°26'1817.7
2014-Aug-22 20:33N 55°57' E 012°43'1716.5
2014-Aug-22 19:33N 55°41' E 012°41'1413.9
2014-Aug-22 18:34N 55°27' E 012°42'1413.8
2014-Aug-22 17:34N 55°15' E 012°55'2018.5
2014-Aug-22 16:29N 55°03' E 013°23'1819.1
2014-Aug-22 15:33N 54°52' E 013°47'1919.0
2014-Aug-22 14:33N 54°40' E 014°13'12818.3
2014-Aug-22 07:34N 54°57' E 017°53'1818.1
2014-Aug-22 06:34N 54°57' E 018°25'1818.1
2014-Aug-22 05:33N 54°50' E 018°53'1716.9
2014-Aug-22 04:33N 54°33' E 018°50'1110.8
2014-Aug-22 03:33N 54°32' E 018°32'0 0.0
2014-Aug-22 02:33N 54°32' E 018°32'  
Track history (hours):
 
Tides and Currents Weather Stations Pressure Air Temp Water Temp Dewpoint Dewpoint Depression Visibility Wind Speed Wind Dir Waves Ship Positions

Finnhawk

Last reported at 2014-Sep-01 02:33 UTC. Time now 2014-Sep-01 07:57 UTC.
Position N 57°43' E 010°01'.

Length 163 m; draft 6.8 m.

Type: Ship. MMSI: 230007000.

Date/timePositionNaut miles runAvg speedWind from/ knotsBaromVisibWave heightAir tempDewpointWater temp
2014-Sep-01 02:33N 57°43' E 010°01'1717.1
2014-Sep-01 01:33N 57°47' E 010°32'1615.8
2014-Sep-01 00:33N 57°42' E 010°60'1717.5
2014-Aug-31 23:33N 57°30' E 011°23'1817.4
2014-Aug-31 22:33N 57°14' E 011°37'5117.0
2014-Aug-31 19:33N 56°25' E 012°07'1716.5
2014-Aug-31 18:33N 56°12' E 012°25'1717.2
2014-Aug-31 17:33N 55°58' E 012°42'1515.3
2014-Aug-31 16:33N 55°43' E 012°41'1312.5
2014-Aug-31 15:33N 55°30' E 012°42'1413.6
2014-Aug-31 14:33N 55°17' E 012°47'1818.0
2014-Aug-31 13:33N 55°15' E 013°19'1818.1
2014-Aug-31 12:34N 55°14' E 013°50'1717.0
2014-Aug-31 11:34N 55°16' E 014°20'1918.9
2014-Aug-31 10:34N 55°29' E 014°44'1919.2
2014-Aug-31 09:34N 55°39' E 015°13'2019.5
2014-Aug-31 08:33N 55°49' E 015°43'1919.1
2014-Aug-31 07:32N 55°59' E 016°14'4018.0
2014-Aug-31 05:20N 56°30' E 016°58'1518.9
2014-Aug-31 04:34N 56°43' E 017°08'1918.8
2014-Aug-31 03:33N 57°01' E 017°20'1918.8
2014-Aug-31 02:33N 57°18' E 017°33'22718.9
2014-Aug-30 14:33N 59°37' E 023°15'2619.0
2014-Aug-30 13:11N 59°46' E 024°04'1219.2
2014-Aug-30 12:33N 59°50' E 024°27'2218.3
2014-Aug-30 11:21N 60°00' E 025°05'1315.5
2014-Aug-30 10:31N 60°12' E 025°13'1 0.2
2014-Aug-30 06:08N 60°13' E 025°12'1 2.2
2014-Aug-30 05:33N 60°12' E 025°13'29 9.7
2014-Aug-30 02:33N 60°05' E 026°10'1413.6
2014-Aug-30 01:33N 60°16' E 026°28'1817.5
2014-Aug-30 00:33N 60°26' E 026°57'3 3.3
2014-Aug-29 23:32N 60°29' E 026°57'0 0.0
2014-Aug-29 22:32N 60°29' E 026°57'0 0.0
2014-Aug-29 21:32N 60°29' E 026°57'0 0.0
2014-Aug-29 20:32N 60°29' E 026°57'0 0.0
2014-Aug-29 19:32N 60°29' E 026°57'0 0.0
2014-Aug-29 18:32N 60°29' E 026°57'0 0.0
2014-Aug-29 17:32N 60°29' E 026°57'0 0.0
2014-Aug-29 16:32N 60°29' E 026°57'0 0.0
2014-Aug-29 15:32N 60°29' E 026°57'0 0.0
2014-Aug-29 14:32N 60°29' E 026°57'0 0.0
2014-Aug-29 13:32N 60°29' E 026°57'0 0.0
2014-Aug-29 12:32N 60°29' E 026°57'0 0.0
2014-Aug-29 11:32N 60°29' E 026°57'0 0.0
2014-Aug-29 10:32N 60°29' E 026°57'0 0.0
2014-Aug-29 09:32N 60°29' E 026°57'0 0.0
2014-Aug-29 08:33N 60°29' E 026°57'0 0.0
2014-Aug-29 07:33N 60°29' E 026°57'0 0.0
2014-Aug-29 06:33N 60°29' E 026°57'0 0.0
2014-Aug-29 05:33N 60°29' E 026°57'0 0.0
2014-Aug-29 04:33N 60°29' E 026°57'0 0.0
2014-Aug-29 03:33N 60°29' E 026°57'0 0.0
2014-Aug-29 02:34N 60°29' E 026°57'7 7.3
2014-Aug-29 01:34N 60°23' E 026°48'1717.0
2014-Aug-29 00:33N 60°12' E 026°23'1312.9
2014-Aug-28 23:33N 60°01' E 026°38'10514.1
2014-Aug-28 16:07N 59°54' E 030°07'3 0.2
2014-Aug-28 05:14N 59°53' E 030°13'9610.7
2014-Aug-27 20:18N 59°58' E 027°02'912.0
2014-Aug-27 19:34N 59°59' E 026°45'4514.8
2014-Aug-27 16:31N 60°01' E 025°15'12 4.0
2014-Aug-27 13:27N 60°13' E 025°12'0 0.0
2014-Aug-27 11:25N 60°13' E 025°12'6 7.4
2014-Aug-27 10:33N 60°07' E 025°12'2116.0
2014-Aug-27 09:13N 59°48' E 024°52'1115.7
2014-Aug-27 08:30N 59°44' E 024°31'1615.9
2014-Aug-27 07:30N 59°40' E 024°01'1616.1
2014-Aug-27 06:33N 59°35' E 023°32'21117.4
2014-Aug-26 18:24N 57°34' E 017°59'1517.8
2014-Aug-26 17:33N 57°22' E 017°44'1918.3
2014-Aug-26 16:32N 57°04' E 017°32'11217.8
2014-Aug-26 10:16N 55°37' E 015°25'1317.8
2014-Aug-26 09:33N 55°32' E 015°05'1817.8
2014-Aug-26 08:33N 55°23' E 014°38'1817.7
2014-Aug-26 07:33N 55°10' E 014°16'2318.0
2014-Aug-26 06:16N 55°12' E 013°36'1318.7
2014-Aug-26 05:33N 55°13' E 013°13'1818.4
2014-Aug-26 04:33N 55°17' E 012°41'1615.5
2014-Aug-26 03:33N 55°33' E 012°42'1313.2
2014-Aug-26 02:34N 55°46' E 012°41'1616.2
2014-Aug-26 01:33N 56°02' E 012°39'1716.8
2014-Aug-26 00:33N 56°13' E 012°17'1615.7
2014-Aug-25 23:33N 56°26' E 012°00'5117.0
2014-Aug-25 20:33N 57°14' E 011°32'1716.8
2014-Aug-25 19:33N 57°30' E 011°19'1717.3
2014-Aug-25 18:33N 57°41' E 010°55'1615.8
2014-Aug-25 17:33N 57°45' E 010°26'37218.6
2014-Aug-24 21:32N 54°03' E 001°32'1919.2
2014-Aug-24 20:32N 53°53' E 001°04'1919.2
2014-Aug-24 19:33N 53°44' E 000°37'1717.7
2014-Aug-24 18:33N 53°33' E 000°14'1515.1
2014-Aug-24 17:33N 53°38' W 000°10'7 7.3
2014-Aug-24 16:33N 53°44' W 000°16'0 0.3
2014-Aug-24 15:29N 53°44' W 000°16'0 0.0
2014-Aug-24 14:29N 53°44' W 000°16'0 0.0
2014-Aug-24 13:29N 53°44' W 000°16'0 0.0
2014-Aug-24 12:29N 53°44' W 000°16'0 0.0
2014-Aug-24 11:32N 53°44' W 000°16'0 0.0
2014-Aug-24 10:32N 53°44' W 000°16'0 0.0
2014-Aug-24 09:32N 53°44' W 000°16'0 0.0
2014-Aug-24 08:29N 53°44' W 000°16'0 0.0
2014-Aug-24 07:32N 53°44' W 000°16'0 0.3
2014-Aug-24 06:33N 53°44' W 000°16'1 0.6
2014-Aug-24 05:33N 53°44' W 000°16'1616.2
2014-Aug-24 04:33N 53°34' E 000°06'1515.2
2014-Aug-24 03:33N 53°42' E 000°28'42617.8
2014-Aug-23 03:33N 57°48' E 010°46'1818.3
2014-Aug-23 02:33N 57°36' E 011°11'1818.3
2014-Aug-23 01:33N 57°21' E 011°33'5618.8
2014-Aug-22 22:33N 56°28' E 012°05'1919.3
2014-Aug-22 21:33N 56°12' E 012°26'1817.7
2014-Aug-22 20:33N 55°57' E 012°43'1716.5
2014-Aug-22 19:33N 55°41' E 012°41'1413.9
2014-Aug-22 18:34N 55°27' E 012°42'1413.8
2014-Aug-22 17:34N 55°15' E 012°55'2018.5
2014-Aug-22 16:29N 55°03' E 013°23'1819.1
2014-Aug-22 15:33N 54°52' E 013°47'1919.0
2014-Aug-22 14:33N 54°40' E 014°13'12818.3
2014-Aug-22 07:34N 54°57' E 017°53'1818.1
2014-Aug-22 06:34N 54°57' E 018°25'1818.1
2014-Aug-22 05:33N 54°50' E 018°53'1716.9
2014-Aug-22 04:33N 54°33' E 018°50'1110.8
2014-Aug-22 03:33N 54°32' E 018°32'0 0.0
2014-Aug-22 02:33N 54°32' E 018°32'  

Dump ship's entire track history